sensor_id;sensor_type;location;lat;lon;timestamp;P1;durP1;ratioP1;P2;durP2;ratioP2
8048;SDS011;20935;42.660;23.342;2022-11-20T00:01:40;8.47;;;6.03;;
8048;SDS011;20935;42.660;23.342;2022-11-20T00:04:05;10.07;;;6.47;;
8048;SDS011;20935;42.660;23.342;2022-11-20T00:06:31;8.13;;;6.87;;
8048;SDS011;20935;42.660;23.342;2022-11-20T00:08:57;10.23;;;8.33;;
8048;SDS011;20935;42.660;23.342;2022-11-20T00:11:23;13.17;;;8.17;;
8048;SDS011;20935;42.660;23.342;2022-11-20T00:13:50;9.87;;;6.33;;
8048;SDS011;20935;42.660;23.342;2022-11-20T00:16:16;7.43;;;5.90;;
8048;SDS011;20935;42.660;23.342;2022-11-20T00:18:42;7.30;;;4.00;;
8048;SDS011;20935;42.660;23.342;2022-11-20T00:21:13;4.80;;;4.10;;
8048;SDS011;20935;42.660;23.342;2022-11-20T00:23:38;6.93;;;4.83;;
8048;SDS011;20935;42.660;23.342;2022-11-20T00:26:04;8.50;;;6.20;;
8048;SDS011;20935;42.660;23.342;2022-11-20T00:28:30;5.73;;;3.73;;
8048;SDS011;20935;42.660;23.342;2022-11-20T00:31:09;5.03;;;4.43;;
8048;SDS011;20935;42.660;23.342;2022-11-20T00:33:34;8.70;;;4.93;;
8048;SDS011;20935;42.660;23.342;2022-11-20T00:36:03;6.17;;;3.90;;
8048;SDS011;20935;42.660;23.342;2022-11-20T00:38:29;5.63;;;3.90;;
8048;SDS011;20935;42.660;23.342;2022-11-20T00:40:59;3.90;;;2.73;;
8048;SDS011;20935;42.660;23.342;2022-11-20T00:43:25;5.90;;;2.67;;
8048;SDS011;20935;42.660;23.342;2022-11-20T00:45:50;2.90;;;2.60;;
8048;SDS011;20935;42.660;23.342;2022-11-20T00:48:15;5.87;;;3.27;;
8048;SDS011;20935;42.660;23.342;2022-11-20T00:50:41;4.37;;;2.90;;
8048;SDS011;20935;42.660;23.342;2022-11-20T00:53:06;4.67;;;2.20;;
8048;SDS011;20935;42.660;23.342;2022-11-20T00:55:31;2.53;;;1.70;;
8048;SDS011;20935;42.660;23.342;2022-11-20T00:57:57;4.70;;;1.60;;
8048;SDS011;20935;42.660;23.342;2022-11-20T01:00:22;2.37;;;1.50;;
8048;SDS011;20935;42.660;23.342;2022-11-20T01:02:47;3.83;;;1.57;;
8048;SDS011;20935;42.660;23.342;2022-11-20T01:05:12;3.23;;;2.20;;
8048;SDS011;20935;42.660;23.342;2022-11-20T01:07:38;3.97;;;2.40;;
8048;SDS011;20935;42.660;23.342;2022-11-20T01:10:03;3.37;;;2.20;;
8048;SDS011;20935;42.660;23.342;2022-11-20T01:12:28;1.97;;;1.73;;
8048;SDS011;20935;42.660;23.342;2022-11-20T01:14:53;6.07;;;1.57;;
8048;SDS011;20935;42.660;23.342;2022-11-20T01:17:19;3.27;;;1.50;;
8048;SDS011;20935;42.660;23.342;2022-11-20T01:19:44;3.70;;;1.40;;
8048;SDS011;20935;42.660;23.342;2022-11-20T01:22:09;5.57;;;1.80;;
8048;SDS011;20935;42.660;23.342;2022-11-20T01:24:35;1.70;;;1.40;;
8048;SDS011;20935;42.660;23.342;2022-11-20T01:27:00;2.97;;;1.30;;
8048;SDS011;20935;42.660;23.342;2022-11-20T01:29:25;1.47;;;1.30;;
8048;SDS011;20935;42.660;23.342;2022-11-20T01:31:51;1.87;;;1.43;;
8048;SDS011;20935;42.660;23.342;2022-11-20T01:34:18;2.43;;;1.90;;
8048;SDS011;20935;42.660;23.342;2022-11-20T01:36:43;2.20;;;1.60;;
8048;SDS011;20935;42.660;23.342;2022-11-20T01:39:16;4.10;;;2.10;;
8048;SDS011;20935;42.660;23.342;2022-11-20T01:41:42;3.07;;;2.27;;
8048;SDS011;20935;42.660;23.342;2022-11-20T01:44:43;3.60;;;2.50;;
8048;SDS011;20935;42.660;23.342;2022-11-20T01:47:10;3.57;;;2.20;;
8048;SDS011;20935;42.660;23.342;2022-11-20T01:49:49;3.77;;;2.17;;
8048;SDS011;20935;42.660;23.342;2022-11-20T01:52:16;3.73;;;2.03;;
8048;SDS011;20935;42.660;23.342;2022-11-20T01:54:44;3.67;;;1.20;;
8048;SDS011;20935;42.660;23.342;2022-11-20T01:57:11;1.40;;;1.10;;
8048;SDS011;20935;42.660;23.342;2022-11-20T01:59:38;3.00;;;1.80;;
8048;SDS011;20935;42.660;23.342;2022-11-20T02:02:05;3.63;;;1.90;;
8048;SDS011;20935;42.660;23.342;2022-11-20T02:04:30;2.33;;;1.70;;
8048;SDS011;20935;42.660;23.342;2022-11-20T02:06:59;2.07;;;1.70;;
8048;SDS011;20935;42.660;23.342;2022-11-20T02:09:25;2.47;;;2.10;;
8048;SDS011;20935;42.660;23.342;2022-11-20T02:11:50;3.63;;;1.80;;
8048;SDS011;20935;42.660;23.342;2022-11-20T02:14:16;3.23;;;1.90;;
8048;SDS011;20935;42.660;23.342;2022-11-20T02:16:46;2.83;;;1.93;;
8048;SDS011;20935;42.660;23.342;2022-11-20T02:19:32;5.33;;;1.90;;
8048;SDS011;20935;42.660;23.342;2022-11-20T02:24:22;3.27;;;1.90;;
8048;SDS011;20935;42.660;23.342;2022-11-20T02:29:14;5.43;;;2.00;;
8048;SDS011;20935;42.660;23.342;2022-11-20T02:31:41;1.60;;;1.50;;
8048;SDS011;20935;42.660;23.342;2022-11-20T02:34:07;2.17;;;1.53;;
8048;SDS011;20935;42.660;23.342;2022-11-20T02:36:33;3.30;;;1.77;;
8048;SDS011;20935;42.660;23.342;2022-11-20T02:39:00;3.07;;;1.30;;
8048;SDS011;20935;42.660;23.342;2022-11-20T02:41:32;2.97;;;1.67;;
8048;SDS011;20935;42.660;23.342;2022-11-20T02:43:58;4.40;;;1.40;;
8048;SDS011;20935;42.660;23.342;2022-11-20T02:46:23;2.80;;;1.43;;
8048;SDS011;20935;42.660;23.342;2022-11-20T02:48:48;3.23;;;1.37;;
8048;SDS011;20935;42.660;23.342;2022-11-20T02:51:14;2.50;;;1.27;;
8048;SDS011;20935;42.660;23.342;2022-11-20T02:53:39;6.40;;;1.60;;
8048;SDS011;20935;42.660;23.342;2022-11-20T02:56:04;3.77;;;1.53;;
8048;SDS011;20935;42.660;23.342;2022-11-20T02:58:30;4.47;;;1.57;;
8048;SDS011;20935;42.660;23.342;2022-11-20T03:00:55;1.57;;;1.23;;
8048;SDS011;20935;42.660;23.342;2022-11-20T03:03:20;3.10;;;1.80;;
8048;SDS011;20935;42.660;23.342;2022-11-20T03:05:45;4.40;;;1.73;;
8048;SDS011;20935;42.660;23.342;2022-11-20T03:08:10;2.10;;;1.70;;
8048;SDS011;20935;42.660;23.342;2022-11-20T03:10:36;3.40;;;1.50;;
8048;SDS011;20935;42.660;23.342;2022-11-20T03:13:01;2.70;;;1.63;;
8048;SDS011;20935;42.660;23.342;2022-11-20T03:15:26;3.03;;;1.50;;
8048;SDS011;20935;42.660;23.342;2022-11-20T03:17:54;2.27;;;1.60;;
8048;SDS011;20935;42.660;23.342;2022-11-20T03:20:20;2.97;;;1.60;;
8048;SDS011;20935;42.660;23.342;2022-11-20T03:22:46;2.70;;;1.50;;
8048;SDS011;20935;42.660;23.342;2022-11-20T03:25:11;2.40;;;1.40;;
8048;SDS011;20935;42.660;23.342;2022-11-20T03:27:36;4.60;;;1.70;;
8048;SDS011;20935;42.660;23.342;2022-11-20T03:30:02;2.43;;;1.33;;
8048;SDS011;20935;42.660;23.342;2022-11-20T03:32:27;4.73;;;1.40;;
8048;SDS011;20935;42.660;23.342;2022-11-20T03:34:53;3.27;;;1.50;;
8048;SDS011;20935;42.660;23.342;2022-11-20T03:37:18;4.97;;;1.83;;
8048;SDS011;20935;42.660;23.342;2022-11-20T03:39:43;2.30;;;1.43;;
8048;SDS011;20935;42.660;23.342;2022-11-20T03:42:08;3.90;;;2.00;;
8048;SDS011;20935;42.660;23.342;2022-11-20T03:44:54;2.10;;;1.83;;
8048;SDS011;20935;42.660;23.342;2022-11-20T03:47:19;1.60;;;1.30;;
8048;SDS011;20935;42.660;23.342;2022-11-20T03:49:44;1.67;;;1.40;;
8048;SDS011;20935;42.660;23.342;2022-11-20T03:52:10;2.03;;;1.40;;
8048;SDS011;20935;42.660;23.342;2022-11-20T03:54:35;4.00;;;2.33;;
8048;SDS011;20935;42.660;23.342;2022-11-20T03:57:00;3.57;;;2.07;;
8048;SDS011;20935;42.660;23.342;2022-11-20T03:59:25;1.70;;;1.60;;
8048;SDS011;20935;42.660;23.342;2022-11-20T04:01:50;2.77;;;1.40;;
8048;SDS011;20935;42.660;23.342;2022-11-20T04:04:16;2.83;;;1.53;;
8048;SDS011;20935;42.660;23.342;2022-11-20T04:06:41;4.00;;;1.60;;
8048;SDS011;20935;42.660;23.342;2022-11-20T04:09:06;2.60;;;1.67;;
8048;SDS011;20935;42.660;23.342;2022-11-20T04:11:32;3.70;;;1.67;;
8048;SDS011;20935;42.660;23.342;2022-11-20T04:14:02;2.83;;;1.93;;
8048;SDS011;20935;42.660;23.342;2022-11-20T04:16:32;3.77;;;1.50;;
8048;SDS011;20935;42.660;23.342;2022-11-20T04:18:58;2.30;;;1.40;;
8048;SDS011;20935;42.660;23.342;2022-11-20T04:21:24;4.27;;;2.30;;
8048;SDS011;20935;42.660;23.342;2022-11-20T04:23:50;2.13;;;1.60;;
8048;SDS011;20935;42.660;23.342;2022-11-20T04:26:15;2.47;;;1.67;;
8048;SDS011;20935;42.660;23.342;2022-11-20T04:28:41;1.90;;;1.37;;
8048;SDS011;20935;42.660;23.342;2022-11-20T04:31:07;2.80;;;1.23;;
8048;SDS011;20935;42.660;23.342;2022-11-20T04:33:33;3.70;;;1.33;;
8048;SDS011;20935;42.660;23.342;2022-11-20T04:36:02;2.03;;;1.40;;
8048;SDS011;20935;42.660;23.342;2022-11-20T04:38:28;1.53;;;1.40;;
8048;SDS011;20935;42.660;23.342;2022-11-20T04:40:57;5.70;;;1.33;;
8048;SDS011;20935;42.660;23.342;2022-11-20T04:43:23;2.83;;;1.50;;
8048;SDS011;20935;42.660;23.342;2022-11-20T04:45:52;1.77;;;1.67;;
8048;SDS011;20935;42.660;23.342;2022-11-20T04:48:17;2.03;;;1.20;;
8048;SDS011;20935;42.660;23.342;2022-11-20T04:50:42;1.90;;;1.40;;
8048;SDS011;20935;42.660;23.342;2022-11-20T04:53:08;3.33;;;1.30;;
8048;SDS011;20935;42.660;23.342;2022-11-20T04:55:33;3.10;;;1.53;;
8048;SDS011;20935;42.660;23.342;2022-11-20T04:57:58;5.23;;;1.30;;
8048;SDS011;20935;42.660;23.342;2022-11-20T05:00:23;1.53;;;1.30;;
8048;SDS011;20935;42.660;23.342;2022-11-20T05:02:49;3.50;;;1.20;;
8048;SDS011;20935;42.660;23.342;2022-11-20T05:05:14;2.50;;;1.10;;
8048;SDS011;20935;42.660;23.342;2022-11-20T05:07:39;1.57;;;1.30;;
8048;SDS011;20935;42.660;23.342;2022-11-20T05:10:05;3.13;;;1.43;;
8048;SDS011;20935;42.660;23.342;2022-11-20T05:12:31;1.00;;;1.00;;
8048;SDS011;20935;42.660;23.342;2022-11-20T05:14:56;1.33;;;1.00;;
8048;SDS011;20935;42.660;23.342;2022-11-20T05:17:21;2.03;;;1.40;;
8048;SDS011;20935;42.660;23.342;2022-11-20T05:19:46;5.10;;;1.50;;
8048;SDS011;20935;42.660;23.342;2022-11-20T05:22:12;1.37;;;1.20;;
8048;SDS011;20935;42.660;23.342;2022-11-20T05:24:37;1.40;;;1.10;;
8048;SDS011;20935;42.660;23.342;2022-11-20T05:27:02;1.33;;;1.23;;
8048;SDS011;20935;42.660;23.342;2022-11-20T05:29:28;1.77;;;1.40;;
8048;SDS011;20935;42.660;23.342;2022-11-20T05:31:53;2.43;;;1.50;;
8048;SDS011;20935;42.660;23.342;2022-11-20T05:34:18;1.93;;;1.50;;
8048;SDS011;20935;42.660;23.342;2022-11-20T05:36:43;5.77;;;1.70;;
8048;SDS011;20935;42.660;23.342;2022-11-20T05:39:09;2.90;;;1.80;;
8048;SDS011;20935;42.660;23.342;2022-11-20T05:41:34;2.13;;;1.23;;
8048;SDS011;20935;42.660;23.342;2022-11-20T05:44:00;4.60;;;1.70;;
8048;SDS011;20935;42.660;23.342;2022-11-20T05:46:25;4.33;;;1.90;;
8048;SDS011;20935;42.660;23.342;2022-11-20T05:48:50;1.70;;;1.50;;
8048;SDS011;20935;42.660;23.342;2022-11-20T05:51:17;3.83;;;1.80;;
8048;SDS011;20935;42.660;23.342;2022-11-20T05:53:42;3.47;;;1.60;;
8048;SDS011;20935;42.660;23.342;2022-11-20T05:56:12;2.47;;;1.53;;
8048;SDS011;20935;42.660;23.342;2022-11-20T05:58:37;2.47;;;1.70;;
8048;SDS011;20935;42.660;23.342;2022-11-20T06:01:10;3.47;;;1.97;;
8048;SDS011;20935;42.660;23.342;2022-11-20T06:03:36;3.70;;;2.03;;
8048;SDS011;20935;42.660;23.342;2022-11-20T06:06:02;3.87;;;1.73;;
8048;SDS011;20935;42.660;23.342;2022-11-20T06:08:27;4.93;;;2.10;;
8048;SDS011;20935;42.660;23.342;2022-11-20T06:10:53;4.40;;;1.83;;
8048;SDS011;20935;42.660;23.342;2022-11-20T06:13:18;2.37;;;1.60;;
8048;SDS011;20935;42.660;23.342;2022-11-20T06:15:50;2.77;;;1.80;;
8048;SDS011;20935;42.660;23.342;2022-11-20T06:18:16;2.57;;;1.47;;
8048;SDS011;20935;42.660;23.342;2022-11-20T06:20:41;5.30;;;1.73;;
8048;SDS011;20935;42.660;23.342;2022-11-20T06:23:06;2.30;;;1.77;;
8048;SDS011;20935;42.660;23.342;2022-11-20T06:25:32;4.47;;;1.93;;
8048;SDS011;20935;42.660;23.342;2022-11-20T06:27:57;3.27;;;1.73;;
8048;SDS011;20935;42.660;23.342;2022-11-20T06:30:22;6.47;;;2.07;;
8048;SDS011;20935;42.660;23.342;2022-11-20T06:32:47;6.63;;;2.10;;
8048;SDS011;20935;42.660;23.342;2022-11-20T06:35:13;3.47;;;2.03;;
8048;SDS011;20935;42.660;23.342;2022-11-20T06:37:38;3.87;;;2.17;;
8048;SDS011;20935;42.660;23.342;2022-11-20T06:40:03;3.87;;;1.70;;
8048;SDS011;20935;42.660;23.342;2022-11-20T06:42:29;3.70;;;2.03;;
8048;SDS011;20935;42.660;23.342;2022-11-20T06:44:54;2.43;;;1.80;;
8048;SDS011;20935;42.660;23.342;2022-11-20T06:47:19;3.83;;;1.90;;
8048;SDS011;20935;42.660;23.342;2022-11-20T06:49:44;4.70;;;1.57;;
8048;SDS011;20935;42.660;23.342;2022-11-20T06:52:10;3.50;;;1.60;;
8048;SDS011;20935;42.660;23.342;2022-11-20T06:54:35;2.93;;;1.90;;
8048;SDS011;20935;42.660;23.342;2022-11-20T06:57:00;3.70;;;1.87;;
8048;SDS011;20935;42.660;23.342;2022-11-20T06:59:25;3.07;;;2.10;;
8048;SDS011;20935;42.660;23.342;2022-11-20T07:01:51;2.93;;;1.93;;
8048;SDS011;20935;42.660;23.342;2022-11-20T07:04:16;3.47;;;2.03;;
8048;SDS011;20935;42.660;23.342;2022-11-20T07:06:41;4.33;;;1.87;;
8048;SDS011;20935;42.660;23.342;2022-11-20T07:09:06;2.80;;;1.87;;
8048;SDS011;20935;42.660;23.342;2022-11-20T07:11:32;4.90;;;2.10;;
8048;SDS011;20935;42.660;23.342;2022-11-20T07:13:57;4.83;;;1.70;;
8048;SDS011;20935;42.660;23.342;2022-11-20T07:16:22;2.10;;;1.50;;
8048;SDS011;20935;42.660;23.342;2022-11-20T07:18:48;5.70;;;1.67;;
8048;SDS011;20935;42.660;23.342;2022-11-20T07:21:13;2.03;;;1.67;;
8048;SDS011;20935;42.660;23.342;2022-11-20T07:23:38;2.27;;;1.77;;
8048;SDS011;20935;42.660;23.342;2022-11-20T07:26:04;4.90;;;1.80;;
8048;SDS011;20935;42.660;23.342;2022-11-20T07:28:30;5.53;;;1.80;;
8048;SDS011;20935;42.660;23.342;2022-11-20T07:30:55;4.67;;;2.10;;
8048;SDS011;20935;42.660;23.342;2022-11-20T07:33:20;2.83;;;1.80;;
8048;SDS011;20935;42.660;23.342;2022-11-20T07:35:46;4.17;;;1.93;;
8048;SDS011;20935;42.660;23.342;2022-11-20T07:38:11;6.37;;;1.67;;
8048;SDS011;20935;42.660;23.342;2022-11-20T07:40:36;7.03;;;2.07;;
8048;SDS011;20935;42.660;23.342;2022-11-20T07:43:01;6.90;;;2.53;;
8048;SDS011;20935;42.660;23.342;2022-11-20T07:45:27;3.43;;;1.97;;
8048;SDS011;20935;42.660;23.342;2022-11-20T07:47:52;6.27;;;2.00;;
8048;SDS011;20935;42.660;23.342;2022-11-20T07:50:18;2.90;;;1.80;;
8048;SDS011;20935;42.660;23.342;2022-11-20T07:52:43;4.13;;;1.73;;
8048;SDS011;20935;42.660;23.342;2022-11-20T07:55:09;4.87;;;1.90;;
8048;SDS011;20935;42.660;23.342;2022-11-20T07:57:34;2.63;;;1.60;;
8048;SDS011;20935;42.660;23.342;2022-11-20T08:00:00;3.20;;;1.70;;
8048;SDS011;20935;42.660;23.342;2022-11-20T08:02:25;5.40;;;2.00;;
8048;SDS011;20935;42.660;23.342;2022-11-20T08:04:50;3.40;;;1.83;;
8048;SDS011;20935;42.660;23.342;2022-11-20T08:07:16;4.33;;;1.83;;
8048;SDS011;20935;42.660;23.342;2022-11-20T08:09:41;2.90;;;1.97;;
8048;SDS011;20935;42.660;23.342;2022-11-20T08:12:06;6.13;;;2.57;;
8048;SDS011;20935;42.660;23.342;2022-11-20T08:14:50;6.97;;;3.57;;
8048;SDS011;20935;42.660;23.342;2022-11-20T08:17:15;5.07;;;2.83;;
8048;SDS011;20935;42.660;23.342;2022-11-20T08:19:40;5.13;;;2.70;;
8048;SDS011;20935;42.660;23.342;2022-11-20T08:22:06;5.23;;;2.50;;
8048;SDS011;20935;42.660;23.342;2022-11-20T08:24:31;7.53;;;2.70;;
8048;SDS011;20935;42.660;23.342;2022-11-20T08:26:59;5.10;;;2.90;;
8048;SDS011;20935;42.660;23.342;2022-11-20T08:29:25;7.67;;;2.53;;
8048;SDS011;20935;42.660;23.342;2022-11-20T08:31:51;4.83;;;2.43;;
8048;SDS011;20935;42.660;23.342;2022-11-20T08:34:16;7.97;;;2.13;;
8048;SDS011;20935;42.660;23.342;2022-11-20T08:36:41;6.37;;;2.10;;
8048;SDS011;20935;42.660;23.342;2022-11-20T08:39:06;4.97;;;2.53;;
8048;SDS011;20935;42.660;23.342;2022-11-20T08:41:32;5.70;;;2.10;;
8048;SDS011;20935;42.660;23.342;2022-11-20T08:44:02;6.13;;;2.10;;
8048;SDS011;20935;42.660;23.342;2022-11-20T08:46:31;5.60;;;1.90;;
8048;SDS011;20935;42.660;23.342;2022-11-20T08:48:58;8.90;;;3.37;;
8048;SDS011;20935;42.660;23.342;2022-11-20T08:51:23;4.80;;;2.30;;
8048;SDS011;20935;42.660;23.342;2022-11-20T08:53:48;4.77;;;2.53;;
8048;SDS011;20935;42.660;23.342;2022-11-20T08:56:14;7.10;;;2.43;;
8048;SDS011;20935;42.660;23.342;2022-11-20T08:58:39;4.07;;;2.00;;
8048;SDS011;20935;42.660;23.342;2022-11-20T09:01:04;3.47;;;1.90;;
8048;SDS011;20935;42.660;23.342;2022-11-20T09:03:31;5.00;;;2.23;;
8048;SDS011;20935;42.660;23.342;2022-11-20T09:05:59;5.77;;;2.47;;
8048;SDS011;20935;42.660;23.342;2022-11-20T09:08:25;5.83;;;2.10;;
8048;SDS011;20935;42.660;23.342;2022-11-20T09:10:52;4.77;;;2.00;;
8048;SDS011;20935;42.660;23.342;2022-11-20T09:13:17;7.60;;;2.50;;
8048;SDS011;20935;42.660;23.342;2022-11-20T09:15:42;6.60;;;2.70;;
8048;SDS011;20935;42.660;23.342;2022-11-20T09:18:07;7.30;;;3.43;;
8048;SDS011;20935;42.660;23.342;2022-11-20T09:20:33;3.90;;;2.80;;
8048;SDS011;20935;42.660;23.342;2022-11-20T09:22:58;6.40;;;2.60;;
8048;SDS011;20935;42.660;23.342;2022-11-20T09:25:23;3.60;;;1.80;;
8048;SDS011;20935;42.660;23.342;2022-11-20T09:27:54;3.20;;;1.70;;
8048;SDS011;20935;42.660;23.342;2022-11-20T09:30:19;2.80;;;1.57;;
8048;SDS011;20935;42.660;23.342;2022-11-20T09:32:45;4.40;;;1.53;;
8048;SDS011;20935;42.660;23.342;2022-11-20T09:35:10;2.77;;;1.57;;
8048;SDS011;20935;42.660;23.342;2022-11-20T09:37:35;2.30;;;1.30;;
8048;SDS011;20935;42.660;23.342;2022-11-20T09:40:01;1.40;;;1.23;;
8048;SDS011;20935;42.660;23.342;2022-11-20T09:42:35;1.50;;;1.40;;
8048;SDS011;20935;42.660;23.342;2022-11-20T09:54:55;2.93;;;1.97;;
8048;SDS011;20935;42.660;23.342;2022-11-20T09:57:21;4.60;;;2.40;;
8048;SDS011;20935;42.660;23.342;2022-11-20T09:59:49;5.13;;;2.83;;
8048;SDS011;20935;42.660;23.342;2022-11-20T10:04:55;4.47;;;2.33;;
8048;SDS011;20935;42.660;23.342;2022-11-20T10:07:30;2.10;;;1.87;;
8048;SDS011;20935;42.660;23.342;2022-11-20T10:09:59;4.10;;;2.50;;
8048;SDS011;20935;42.660;23.342;2022-11-20T10:12:27;5.13;;;2.70;;
8048;SDS011;20935;42.660;23.342;2022-11-20T10:17:51;4.17;;;2.50;;
8048;SDS011;20935;42.660;23.342;2022-11-20T10:20:56;4.80;;;2.60;;
8048;SDS011;20935;42.660;23.342;2022-11-20T10:28:50;7.93;;;4.27;;
8048;SDS011;20935;42.660;23.342;2022-11-20T10:31:09;4.40;;;3.07;;
8048;SDS011;20935;42.660;23.342;2022-11-20T10:33:36;8.20;;;3.40;;
8048;SDS011;20935;42.660;23.342;2022-11-20T10:38:36;7.73;;;3.53;;
8048;SDS011;20935;42.660;23.342;2022-11-20T10:41:02;8.50;;;4.03;;
8048;SDS011;20935;42.660;23.342;2022-11-20T10:43:46;10.23;;;3.87;;
8048;SDS011;20935;42.660;23.342;2022-11-20T10:46:20;8.30;;;3.97;;
8048;SDS011;20935;42.660;23.342;2022-11-20T10:48:49;7.77;;;3.80;;
8048;SDS011;20935;42.660;23.342;2022-11-20T10:51:21;7.20;;;3.40;;
8048;SDS011;20935;42.660;23.342;2022-11-20T10:56:41;7.43;;;4.30;;
8048;SDS011;20935;42.660;23.342;2022-11-20T11:01:55;6.77;;;4.00;;
8048;SDS011;20935;42.660;23.342;2022-11-20T11:07:58;6.97;;;4.37;;
8048;SDS011;20935;42.660;23.342;2022-11-20T11:09:53;8.83;;;4.70;;
8048;SDS011;20935;42.660;23.342;2022-11-20T11:12:19;13.87;;;5.27;;
8048;SDS011;20935;42.660;23.342;2022-11-20T11:14:48;9.33;;;4.90;;
8048;SDS011;20935;42.660;23.342;2022-11-20T11:20:02;1.40;;;1.30;;
8048;SDS011;20935;42.660;23.342;2022-11-20T11:22:29;3.30;;;1.60;;
8048;SDS011;20935;42.660;23.342;2022-11-20T11:24:55;2.77;;;2.07;;
8048;SDS011;20935;42.660;23.342;2022-11-20T11:27:20;2.93;;;1.60;;
8048;SDS011;20935;42.660;23.342;2022-11-20T11:29:45;2.03;;;1.70;;
8048;SDS011;20935;42.660;23.342;2022-11-20T11:32:15;2.83;;;1.53;;
8048;SDS011;20935;42.660;23.342;2022-11-20T11:34:40;2.53;;;1.60;;
8048;SDS011;20935;42.660;23.342;2022-11-20T11:37:10;1.60;;;1.30;;
8048;SDS011;20935;42.660;23.342;2022-11-20T11:39:37;2.20;;;1.33;;
8048;SDS011;20935;42.660;23.342;2022-11-20T11:42:05;2.47;;;1.70;;
8048;SDS011;20935;42.660;23.342;2022-11-20T11:44:31;3.53;;;1.60;;
8048;SDS011;20935;42.660;23.342;2022-11-20T11:49:43;3.80;;;1.67;;
8048;SDS011;20935;42.660;23.342;2022-11-20T11:52:18;2.60;;;1.67;;
8048;SDS011;20935;42.660;23.342;2022-11-20T11:57:28;2.13;;;1.70;;
8048;SDS011;20935;42.660;23.342;2022-11-20T12:02:31;4.30;;;1.83;;
8048;SDS011;20935;42.660;23.342;2022-11-20T12:05:02;5.53;;;1.50;;
8048;SDS011;20935;42.660;23.342;2022-11-20T12:10:00;2.27;;;1.30;;
8048;SDS011;20935;42.660;23.342;2022-11-20T12:12:49;4.47;;;1.50;;
8048;SDS011;20935;42.660;23.342;2022-11-20T12:15:13;1.83;;;1.40;;
8048;SDS011;20935;42.660;23.342;2022-11-20T12:17:40;5.03;;;1.40;;
8048;SDS011;20935;42.660;23.342;2022-11-20T12:20:12;4.00;;;2.50;;
8048;SDS011;20935;42.660;23.342;2022-11-20T12:22:41;2.23;;;1.30;;
8048;SDS011;20935;42.660;23.342;2022-11-20T12:25:11;3.03;;;1.30;;
8048;SDS011;20935;42.660;23.342;2022-11-20T12:27:51;1.77;;;1.50;;
8048;SDS011;20935;42.660;23.342;2022-11-20T12:30:19;2.67;;;1.70;;
8048;SDS011;20935;42.660;23.342;2022-11-20T12:37:59;1.60;;;1.13;;
8048;SDS011;20935;42.660;23.342;2022-11-20T12:58:35;3.73;;;1.70;;
8048;SDS011;20935;42.660;23.342;2022-11-20T13:03:37;3.90;;;2.37;;
8048;SDS011;20935;42.660;23.342;2022-11-20T13:06:07;5.47;;;2.43;;
8048;SDS011;20935;42.660;23.342;2022-11-20T13:08:55;3.40;;;2.30;;
8048;SDS011;20935;42.660;23.342;2022-11-20T13:14:07;6.13;;;2.80;;
8048;SDS011;20935;42.660;23.342;2022-11-20T13:17:17;4.77;;;2.13;;
8048;SDS011;20935;42.660;23.342;2022-11-20T13:19:22;4.93;;;2.47;;
8048;SDS011;20935;42.660;23.342;2022-11-20T13:21:48;3.83;;;2.40;;
8048;SDS011;20935;42.660;23.342;2022-11-20T13:26:59;5.07;;;2.43;;
8048;SDS011;20935;42.660;23.342;2022-11-20T13:29:25;2.87;;;2.47;;
8048;SDS011;20935;42.660;23.342;2022-11-20T13:31:50;4.03;;;2.53;;
8048;SDS011;20935;42.660;23.342;2022-11-20T13:34:25;5.37;;;2.97;;
8048;SDS011;20935;42.660;23.342;2022-11-20T13:36:52;7.93;;;2.87;;
8048;SDS011;20935;42.660;23.342;2022-11-20T13:39:32;5.17;;;3.17;;
8048;SDS011;20935;42.660;23.342;2022-11-20T13:41:58;4.33;;;3.07;;
8048;SDS011;20935;42.660;23.342;2022-11-20T13:44:25;7.80;;;3.07;;
8048;SDS011;20935;42.660;23.342;2022-11-20T13:46:51;4.33;;;2.53;;
8048;SDS011;20935;42.660;23.342;2022-11-20T13:51:57;7.33;;;3.80;;
8048;SDS011;20935;42.660;23.342;2022-11-20T14:01:58;4.40;;;2.57;;
8048;SDS011;20935;42.660;23.342;2022-11-20T14:04:36;5.67;;;3.00;;
8048;SDS011;20935;42.660;23.342;2022-11-20T14:07:05;6.03;;;3.93;;
8048;SDS011;20935;42.660;23.342;2022-11-20T14:09:31;5.80;;;3.53;;
8048;SDS011;20935;42.660;23.342;2022-11-20T14:11:57;3.90;;;3.27;;
8048;SDS011;20935;42.660;23.342;2022-11-20T14:14:23;3.97;;;3.10;;
8048;SDS011;20935;42.660;23.342;2022-11-20T14:16:49;8.10;;;3.93;;
8048;SDS011;20935;42.660;23.342;2022-11-20T14:21:51;6.57;;;3.90;;
8048;SDS011;20935;42.660;23.342;2022-11-20T14:24:21;7.30;;;3.50;;
8048;SDS011;20935;42.660;23.342;2022-11-20T14:26:46;6.27;;;3.43;;
8048;SDS011;20935;42.660;23.342;2022-11-20T14:29:16;6.87;;;3.47;;
8048;SDS011;20935;42.660;23.342;2022-11-20T14:31:42;7.33;;;3.60;;
8048;SDS011;20935;42.660;23.342;2022-11-20T14:34:18;6.80;;;4.30;;
8048;SDS011;20935;42.660;23.342;2022-11-20T14:36:43;8.07;;;4.33;;
8048;SDS011;20935;42.660;23.342;2022-11-20T14:39:11;6.87;;;5.90;;
8048;SDS011;20935;42.660;23.342;2022-11-20T14:41:37;5.67;;;4.30;;
8048;SDS011;20935;42.660;23.342;2022-11-20T14:44:02;8.13;;;4.27;;
8048;SDS011;20935;42.660;23.342;2022-11-20T14:46:27;8.53;;;4.53;;
8048;SDS011;20935;42.660;23.342;2022-11-20T14:48:55;6.63;;;4.30;;
8048;SDS011;20935;42.660;23.342;2022-11-20T14:51:31;7.87;;;4.40;;
8048;SDS011;20935;42.660;23.342;2022-11-20T14:54:07;5.37;;;4.03;;
8048;SDS011;20935;42.660;23.342;2022-11-20T14:56:33;6.17;;;3.77;;
8048;SDS011;20935;42.660;23.342;2022-11-20T14:58:58;8.43;;;4.37;;
8048;SDS011;20935;42.660;23.342;2022-11-20T15:01:30;7.60;;;3.90;;
8048;SDS011;20935;42.660;23.342;2022-11-20T15:04:05;4.93;;;3.63;;
8048;SDS011;20935;42.660;23.342;2022-11-20T15:06:30;7.50;;;3.83;;
8048;SDS011;20935;42.660;23.342;2022-11-20T15:08:56;3.20;;;2.70;;
8048;SDS011;20935;42.660;23.342;2022-11-20T15:11:25;3.67;;;3.00;;
8048;SDS011;20935;42.660;23.342;2022-11-20T15:13:52;5.13;;;3.73;;
8048;SDS011;20935;42.660;23.342;2022-11-20T15:16:18;3.27;;;2.30;;
8048;SDS011;20935;42.660;23.342;2022-11-20T15:18:45;2.93;;;2.10;;
8048;SDS011;20935;42.660;23.342;2022-11-20T15:21:11;2.60;;;2.40;;
8048;SDS011;20935;42.660;23.342;2022-11-20T15:23:37;5.27;;;2.93;;
8048;SDS011;20935;42.660;23.342;2022-11-20T15:26:04;4.33;;;3.10;;
8048;SDS011;20935;42.660;23.342;2022-11-20T15:28:36;4.47;;;3.23;;
8048;SDS011;20935;42.660;23.342;2022-11-20T15:31:02;3.70;;;2.83;;
8048;SDS011;20935;42.660;23.342;2022-11-20T15:33:28;4.37;;;2.37;;
8048;SDS011;20935;42.660;23.342;2022-11-20T15:35:53;3.57;;;2.63;;
8048;SDS011;20935;42.660;23.342;2022-11-20T15:38:19;2.63;;;2.17;;
8048;SDS011;20935;42.660;23.342;2022-11-20T15:40:44;4.10;;;2.30;;
8048;SDS011;20935;42.660;23.342;2022-11-20T15:43:09;3.30;;;2.20;;
8048;SDS011;20935;42.660;23.342;2022-11-20T15:45:38;3.37;;;2.30;;
8048;SDS011;20935;42.660;23.342;2022-11-20T15:48:05;2.30;;;2.10;;
8048;SDS011;20935;42.660;23.342;2022-11-20T15:50:35;3.37;;;2.57;;
8048;SDS011;20935;42.660;23.342;2022-11-20T15:53:01;4.53;;;2.37;;
8048;SDS011;20935;42.660;23.342;2022-11-20T15:55:27;3.60;;;2.63;;
8048;SDS011;20935;42.660;23.342;2022-11-20T15:57:52;3.37;;;2.50;;
8048;SDS011;20935;42.660;23.342;2022-11-20T16:00:17;3.13;;;2.53;;
8048;SDS011;20935;42.660;23.342;2022-11-20T16:02:42;3.37;;;3.07;;
8048;SDS011;20935;42.660;23.342;2022-11-20T16:05:09;4.03;;;2.60;;
8048;SDS011;20935;42.660;23.342;2022-11-20T16:07:35;3.00;;;2.17;;
8048;SDS011;20935;42.660;23.342;2022-11-20T16:10:01;4.73;;;2.67;;
8048;SDS011;20935;42.660;23.342;2022-11-20T16:12:26;3.67;;;2.10;;
8048;SDS011;20935;42.660;23.342;2022-11-20T16:15:09;3.80;;;2.20;;
8048;SDS011;20935;42.660;23.342;2022-11-20T16:17:54;3.73;;;2.40;;
8048;SDS011;20935;42.660;23.342;2022-11-20T16:20:19;3.03;;;2.70;;
8048;SDS011;20935;42.660;23.342;2022-11-20T16:22:44;3.50;;;2.53;;